sensor_id;sensor_type;location;lat;lon;timestamp;temperature;humidity
55719;DHT22;41623;46.104;19.656;2024-03-07T00:02:09;410.30;1715.20
55719;DHT22;41623;46.104;19.656;2024-03-07T00:04:35;410.30;1715.20
55719;DHT22;41623;46.104;19.656;2024-03-07T00:07:05;410.30;1715.20
55719;DHT22;41623;46.104;19.656;2024-03-07T00:09:34;410.30;1715.20
55719;DHT22;41623;46.104;19.656;2024-03-07T00:12:00;410.30;1715.20
55719;DHT22;41623;46.104;19.656;2024-03-07T00:14:26;410.30;1715.20
55719;DHT22;41623;46.104;19.656;2024-03-07T00:16:56;410.30;1715.20
55719;DHT22;41623;46.104;19.656;2024-03-07T00:19:22;410.30;1715.20
55719;DHT22;41623;46.104;19.656;2024-03-07T00:21:51;410.30;1715.20
55719;DHT22;41623;46.104;19.656;2024-03-07T00:24:17;410.30;1715.20
55719;DHT22;41623;46.104;19.656;2024-03-07T00:26:43;410.30;1715.20
55719;DHT22;41623;46.104;19.656;2024-03-07T00:29:09;410.30;1715.20
55719;DHT22;41623;46.104;19.656;2024-03-07T00:31:34;410.30;1715.20
55719;DHT22;41623;46.104;19.656;2024-03-07T00:34:00;410.30;1689.60
55719;DHT22;41623;46.104;19.656;2024-03-07T00:36:26;410.30;1689.60
55719;DHT22;41623;46.104;19.656;2024-03-07T00:38:52;410.30;1689.60
55719;DHT22;41623;46.104;19.656;2024-03-07T00:41:18;410.30;1715.20
55719;DHT22;41623;46.104;19.656;2024-03-07T00:43:44;410.30;1664.00
55719;DHT22;41623;46.104;19.656;2024-03-07T00:46:10;410.30;1689.60
55719;DHT22;41623;46.104;19.656;2024-03-07T00:48:37;410.30;1715.20
55719;DHT22;41623;46.104;19.656;2024-03-07T00:51:03;410.30;1689.60
55719;DHT22;41623;46.104;19.656;2024-03-07T00:53:30;410.30;1689.60
55719;DHT22;41623;46.104;19.656;2024-03-07T00:55:56;410.30;1689.60
55719;DHT22;41623;46.104;19.656;2024-03-07T00:58:22;410.30;1689.60
55719;DHT22;41623;46.104;19.656;2024-03-07T01:00:48;410.30;1715.20
55719;DHT22;41623;46.104;19.656;2024-03-07T01:03:13;410.30;1715.20
55719;DHT22;41623;46.104;19.656;2024-03-07T01:05:42;410.30;1689.60
55719;DHT22;41623;46.104;19.656;2024-03-07T01:08:08;410.30;1715.20
55719;DHT22;41623;46.104;19.656;2024-03-07T01:10:34;410.30;1715.20
55719;DHT22;41623;46.104;19.656;2024-03-07T01:13:00;410.30;1715.20
55719;DHT22;41623;46.104;19.656;2024-03-07T01:15:28;410.30;1715.20
55719;DHT22;41623;46.104;19.656;2024-03-07T01:17:54;410.30;1715.20
55719;DHT22;41623;46.104;19.656;2024-03-07T01:20:21;410.30;1715.20
55719;DHT22;41623;46.104;19.656;2024-03-07T01:22:48;410.30;1689.60
55719;DHT22;41623;46.104;19.656;2024-03-07T01:25:17;410.30;1715.20
55719;DHT22;41623;46.104;19.656;2024-03-07T01:27:43;410.30;1715.20
55719;DHT22;41623;46.104;19.656;2024-03-07T01:30:10;410.30;1715.20
55719;DHT22;41623;46.104;19.656;2024-03-07T01:32:36;410.30;1715.20
55719;DHT22;41623;46.104;19.656;2024-03-07T01:35:01;410.30;1715.20
55719;DHT22;41623;46.104;19.656;2024-03-07T01:37:27;410.30;1664.00
55719;DHT22;41623;46.104;19.656;2024-03-07T01:39:54;410.30;1715.20
55719;DHT22;41623;46.104;19.656;2024-03-07T01:42:21;410.30;1715.20
55719;DHT22;41623;46.104;19.656;2024-03-07T01:44:47;410.30;1664.00
55719;DHT22;41623;46.104;19.656;2024-03-07T01:47:12;410.30;1664.00
55719;DHT22;41623;46.104;19.656;2024-03-07T01:49:41;410.30;1689.60
55719;DHT22;41623;46.104;19.656;2024-03-07T01:52:07;410.30;1638.40
55719;DHT22;41623;46.104;19.656;2024-03-07T01:54:34;410.30;1689.60
55719;DHT22;41623;46.104;19.656;2024-03-07T01:57:01;410.30;1664.00
55719;DHT22;41623;46.104;19.656;2024-03-07T01:59:27;410.30;1715.20
55719;DHT22;41623;46.104;19.656;2024-03-07T02:01:56;410.30;1689.60
55719;DHT22;41623;46.104;19.656;2024-03-07T02:04:22;410.30;1715.20
55719;DHT22;41623;46.104;19.656;2024-03-07T02:06:50;410.30;1689.60
55719;DHT22;41623;46.104;19.656;2024-03-07T02:09:16;410.30;1689.60
55719;DHT22;41623;46.104;19.656;2024-03-07T02:11:43;410.30;1689.60
55719;DHT22;41623;46.104;19.656;2024-03-07T02:14:08;410.30;1715.20
55719;DHT22;41623;46.104;19.656;2024-03-07T02:16:34;410.30;1715.20
55719;DHT22;41623;46.104;19.656;2024-03-07T02:19:00;410.30;1689.60
55719;DHT22;41623;46.104;19.656;2024-03-07T02:21:27;410.30;1664.00
55719;DHT22;41623;46.104;19.656;2024-03-07T02:23:52;410.30;1715.20
55719;DHT22;41623;46.104;19.656;2024-03-07T02:26:19;410.30;1715.20
55719;DHT22;41623;46.104;19.656;2024-03-07T02:28:45;410.20;1664.00
55719;DHT22;41623;46.104;19.656;2024-03-07T02:31:11;410.30;1664.00
55719;DHT22;41623;46.104;19.656;2024-03-07T02:33:37;410.30;1689.60
55719;DHT22;41623;46.104;19.656;2024-03-07T02:36:03;410.30;1664.00
55719;DHT22;41623;46.104;19.656;2024-03-07T02:38:29;410.30;1715.20
55719;DHT22;41623;46.104;19.656;2024-03-07T02:40:55;410.30;1689.60
55719;DHT22;41623;46.104;19.656;2024-03-07T02:43:21;410.30;1689.60
55719;DHT22;41623;46.104;19.656;2024-03-07T02:45:47;410.30;1689.60
55719;DHT22;41623;46.104;19.656;2024-03-07T02:48:13;410.30;1689.60
55719;DHT22;41623;46.104;19.656;2024-03-07T02:50:39;410.30;1664.00
55719;DHT22;41623;46.104;19.656;2024-03-07T02:53:04;410.30;1689.60
55719;DHT22;41623;46.104;19.656;2024-03-07T02:55:31;410.30;1689.60
55719;DHT22;41623;46.104;19.656;2024-03-07T02:57:57;410.30;1689.60
55719;DHT22;41623;46.104;19.656;2024-03-07T03:00:27;410.40;1638.40
55719;DHT22;41623;46.104;19.656;2024-03-07T03:02:55;410.30;1664.00
55719;DHT22;41623;46.104;19.656;2024-03-07T03:05:22;410.30;1689.60
55719;DHT22;41623;46.104;19.656;2024-03-07T03:07:48;410.30;1689.60
55719;DHT22;41623;46.104;19.656;2024-03-07T03:10:22;410.30;1664.00
55719;DHT22;41623;46.104;19.656;2024-03-07T03:12:52;410.30;1689.60
55719;DHT22;41623;46.104;19.656;2024-03-07T03:15:19;410.20;1689.60
55719;DHT22;41623;46.104;19.656;2024-03-07T03:17:46;410.50;1664.00
55719;DHT22;41623;46.104;19.656;2024-03-07T03:20:12;410.20;1689.60
55719;DHT22;41623;46.104;19.656;2024-03-07T03:22:53;410.20;1664.00
55719;DHT22;41623;46.104;19.656;2024-03-07T03:25:22;410.20;1715.20
55719;DHT22;41623;46.104;19.656;2024-03-07T03:27:49;410.20;1689.60
55719;DHT22;41623;46.104;19.656;2024-03-07T03:30:15;410.20;1715.20
55719;DHT22;41623;46.104;19.656;2024-03-07T03:32:46;410.20;1715.20
55719;DHT22;41623;46.104;19.656;2024-03-07T03:35:13;410.20;1689.60
55719;DHT22;41623;46.104;19.656;2024-03-07T03:37:42;410.20;1715.20
55719;DHT22;41623;46.104;19.656;2024-03-07T03:40:09;410.20;1715.20
55719;DHT22;41623;46.104;19.656;2024-03-07T03:42:39;410.20;1715.20
55719;DHT22;41623;46.104;19.656;2024-03-07T03:45:06;410.20;1715.20
55719;DHT22;41623;46.104;19.656;2024-03-07T03:47:38;410.20;1664.00
55719;DHT22;41623;46.104;19.656;2024-03-07T03:50:04;410.20;1689.60
55719;DHT22;41623;46.104;19.656;2024-03-07T03:52:31;410.20;1689.60
55719;DHT22;41623;46.104;19.656;2024-03-07T03:54:57;410.20;1715.20
55719;DHT22;41623;46.104;19.656;2024-03-07T03:57:24;410.20;1689.60
55719;DHT22;41623;46.104;19.656;2024-03-07T03:59:50;410.20;1715.20
55719;DHT22;41623;46.104;19.656;2024-03-07T04:02:16;410.20;1715.20
55719;DHT22;41623;46.104;19.656;2024-03-07T04:04:42;410.20;1689.60
55719;DHT22;41623;46.104;19.656;2024-03-07T04:07:08;410.20;1715.20
55719;DHT22;41623;46.104;19.656;2024-03-07T04:09:34;410.20;1715.20
55719;DHT22;41623;46.104;19.656;2024-03-07T04:11:59;410.20;1689.60
55719;DHT22;41623;46.104;19.656;2024-03-07T04:14:26;410.20;1715.20
55719;DHT22;41623;46.104;19.656;2024-03-07T04:16:51;410.20;1689.60
55719;DHT22;41623;46.104;19.656;2024-03-07T04:19:22;410.20;1664.00
55719;DHT22;41623;46.104;19.656;2024-03-07T04:21:47;410.20;1689.60
55719;DHT22;41623;46.104;19.656;2024-03-07T04:24:13;410.20;1715.20
55719;DHT22;41623;46.104;19.656;2024-03-07T04:26:39;410.20;1689.60
55719;DHT22;41623;46.104;19.656;2024-03-07T04:29:07;410.20;1689.60
55719;DHT22;41623;46.104;19.656;2024-03-07T04:31:36;410.20;1715.20
55719;DHT22;41623;46.104;19.656;2024-03-07T04:34:02;410.20;1689.60
55719;DHT22;41623;46.104;19.656;2024-03-07T04:36:28;410.20;1715.20
55719;DHT22;41623;46.104;19.656;2024-03-07T04:38:54;410.20;1715.20
55719;DHT22;41623;46.104;19.656;2024-03-07T04:41:20;410.20;1715.20
55719;DHT22;41623;46.104;19.656;2024-03-07T04:43:46;410.20;1715.20
55719;DHT22;41623;46.104;19.656;2024-03-07T04:46:12;410.20;1715.20
55719;DHT22;41623;46.104;19.656;2024-03-07T04:48:38;410.20;1715.20
55719;DHT22;41623;46.104;19.656;2024-03-07T04:51:03;410.20;1715.20
55719;DHT22;41623;46.104;19.656;2024-03-07T04:53:29;410.20;1715.20
55719;DHT22;41623;46.104;19.656;2024-03-07T04:55:55;410.20;1715.20
55719;DHT22;41623;46.104;19.656;2024-03-07T04:58:21;410.20;1715.20
55719;DHT22;41623;46.104;19.656;2024-03-07T05:00:47;410.20;1740.80
55719;DHT22;41623;46.104;19.656;2024-03-07T05:03:13;410.20;1715.20
55719;DHT22;41623;46.104;19.656;2024-03-07T05:05:38;410.20;1740.80
55719;DHT22;41623;46.104;19.656;2024-03-07T05:08:06;410.20;1715.20
55719;DHT22;41623;46.104;19.656;2024-03-07T05:10:32;410.20;1740.80
55719;DHT22;41623;46.104;19.656;2024-03-07T05:12:57;410.20;1715.20
55719;DHT22;41623;46.104;19.656;2024-03-07T05:15:26;410.20;1715.20
55719;DHT22;41623;46.104;19.656;2024-03-07T05:17:52;410.20;1740.80
55719;DHT22;41623;46.104;19.656;2024-03-07T05:20:18;410.20;1740.80
55719;DHT22;41623;46.104;19.656;2024-03-07T05:22:44;410.20;1740.80
55719;DHT22;41623;46.104;19.656;2024-03-07T05:25:13;410.20;1740.80
55719;DHT22;41623;46.104;19.656;2024-03-07T05:27:39;410.20;1715.20
55719;DHT22;41623;46.104;19.656;2024-03-07T05:30:05;410.20;1740.80
55719;DHT22;41623;46.104;19.656;2024-03-07T05:32:31;410.20;1740.80
55719;DHT22;41623;46.104;19.656;2024-03-07T05:34:59;410.20;1740.80
55719;DHT22;41623;46.104;19.656;2024-03-07T05:37:25;410.20;1740.80
55719;DHT22;41623;46.104;19.656;2024-03-07T05:39:51;410.20;1740.80
55719;DHT22;41623;46.104;19.656;2024-03-07T05:42:17;410.20;1715.20
55719;DHT22;41623;46.104;19.656;2024-03-07T05:44:44;410.20;1715.20
55719;DHT22;41623;46.104;19.656;2024-03-07T05:47:10;410.20;1715.20
55719;DHT22;41623;46.104;19.656;2024-03-07T05:49:38;410.20;1715.20
55719;DHT22;41623;46.104;19.656;2024-03-07T05:52:05;410.20;1715.20
55719;DHT22;41623;46.104;19.656;2024-03-07T05:54:33;410.20;1740.80
55719;DHT22;41623;46.104;19.656;2024-03-07T05:56:59;410.20;1715.20
55719;DHT22;41623;46.104;19.656;2024-03-07T05:59:25;410.20;1715.20
55719;DHT22;41623;46.104;19.656;2024-03-07T06:01:54;410.20;1715.20
55719;DHT22;41623;46.104;19.656;2024-03-07T06:04:21;410.20;1715.20
55719;DHT22;41623;46.104;19.656;2024-03-07T06:06:46;410.20;1740.80
55719;DHT22;41623;46.104;19.656;2024-03-07T06:09:14;410.20;1715.20
55719;DHT22;41623;46.104;19.656;2024-03-07T06:11:40;410.20;1715.20
55719;DHT22;41623;46.104;19.656;2024-03-07T06:14:09;410.20;1740.80
55719;DHT22;41623;46.104;19.656;2024-03-07T06:16:39;410.20;1715.20
55719;DHT22;41623;46.104;19.656;2024-03-07T06:19:06;410.20;1715.20
55719;DHT22;41623;46.104;19.656;2024-03-07T06:21:36;410.20;1715.20
55719;DHT22;41623;46.104;19.656;2024-03-07T06:24:03;410.20;1715.20
55719;DHT22;41623;46.104;19.656;2024-03-07T06:26:33;410.20;1740.80
55719;DHT22;41623;46.104;19.656;2024-03-07T06:29:18;410.10;1715.20
55719;DHT22;41623;46.104;19.656;2024-03-07T06:31:44;410.20;1715.20
55719;DHT22;41623;46.104;19.656;2024-03-07T06:34:30;410.00;1715.20
55719;DHT22;41623;46.104;19.656;2024-03-07T06:36:56;410.20;1715.20
55719;DHT22;41623;46.104;19.656;2024-03-07T06:39:22;410.20;1715.20
55719;DHT22;41623;46.104;19.656;2024-03-07T06:41:48;410.20;1715.20
55719;DHT22;41623;46.104;19.656;2024-03-07T06:44:14;410.20;1715.20
55719;DHT22;41623;46.104;19.656;2024-03-07T06:46:40;410.20;1689.60
55719;DHT22;41623;46.104;19.656;2024-03-07T06:49:05;410.20;1715.20
55719;DHT22;41623;46.104;19.656;2024-03-07T06:51:35;410.20;1689.60
55719;DHT22;41623;46.104;19.656;2024-03-07T06:54:01;410.20;1689.60
55719;DHT22;41623;46.104;19.656;2024-03-07T06:56:27;410.20;1715.20
55719;DHT22;41623;46.104;19.656;2024-03-07T06:58:53;410.20;1715.20
55719;DHT22;41623;46.104;19.656;2024-03-07T07:01:22;410.20;1715.20
55719;DHT22;41623;46.104;19.656;2024-03-07T07:03:48;410.20;1715.20
55719;DHT22;41623;46.104;19.656;2024-03-07T07:06:14;410.10;1715.20
55719;DHT22;41623;46.104;19.656;2024-03-07T07:08:40;410.20;1740.80
55719;DHT22;41623;46.104;19.656;2024-03-07T07:11:05;410.20;1740.80
55719;DHT22;41623;46.104;19.656;2024-03-07T07:13:32;410.20;1689.60
55719;DHT22;41623;46.104;19.656;2024-03-07T07:15:58;410.20;1715.20
55719;DHT22;41623;46.104;19.656;2024-03-07T07:18:24;410.20;1740.80
55719;DHT22;41623;46.104;19.656;2024-03-07T07:20:50;410.20;1715.20
55719;DHT22;41623;46.104;19.656;2024-03-07T07:23:19;410.10;1715.20
55719;DHT22;41623;46.104;19.656;2024-03-07T07:25:45;410.20;1740.80
55719;DHT22;41623;46.104;19.656;2024-03-07T07:28:12;410.20;1740.80
55719;DHT22;41623;46.104;19.656;2024-03-07T07:30:37;410.10;1740.80
55719;DHT22;41623;46.104;19.656;2024-03-07T07:33:03;410.10;1740.80
55719;DHT22;41623;46.104;19.656;2024-03-07T07:35:29;410.20;1740.80
55719;DHT22;41623;46.104;19.656;2024-03-07T07:37:55;410.20;1715.20
55719;DHT22;41623;46.104;19.656;2024-03-07T07:40:23;410.20;1740.80
55719;DHT22;41623;46.104;19.656;2024-03-07T07:42:51;410.10;1740.80
55719;DHT22;41623;46.104;19.656;2024-03-07T07:45:19;410.10;1740.80
55719;DHT22;41623;46.104;19.656;2024-03-07T07:47:47;410.10;1740.80
55719;DHT22;41623;46.104;19.656;2024-03-07T07:50:19;410.10;1740.80
55719;DHT22;41623;46.104;19.656;2024-03-07T07:52:47;410.10;1740.80
55719;DHT22;41623;46.104;19.656;2024-03-07T07:55:21;410.20;1740.80
55719;DHT22;41623;46.104;19.656;2024-03-07T07:57:47;410.10;1740.80
55719;DHT22;41623;46.104;19.656;2024-03-07T08:00:15;410.10;1740.80
55719;DHT22;41623;46.104;19.656;2024-03-07T08:03:00;410.10;1740.80
55719;DHT22;41623;46.104;19.656;2024-03-07T08:05:31;410.10;1740.80
55719;DHT22;41623;46.104;19.656;2024-03-07T08:08:02;410.10;1740.80
55719;DHT22;41623;46.104;19.656;2024-03-07T08:10:32;410.10;1740.80
55719;DHT22;41623;46.104;19.656;2024-03-07T08:12:59;410.10;1740.80
55719;DHT22;41623;46.104;19.656;2024-03-07T08:15:26;410.10;1715.20
55719;DHT22;41623;46.104;19.656;2024-03-07T08:17:53;410.10;1740.80
55719;DHT22;41623;46.104;19.656;2024-03-07T08:20:21;410.10;1715.20
55719;DHT22;41623;46.104;19.656;2024-03-07T08:22:48;410.10;1740.80
55719;DHT22;41623;46.104;19.656;2024-03-07T08:25:20;410.10;1740.80
55719;DHT22;41623;46.104;19.656;2024-03-07T08:27:47;410.10;1740.80
55719;DHT22;41623;46.104;19.656;2024-03-07T08:30:15;410.10;1740.80
55719;DHT22;41623;46.104;19.656;2024-03-07T08:32:45;410.10;1740.80
55719;DHT22;41623;46.104;19.656;2024-03-07T08:35:12;410.10;1740.80
55719;DHT22;41623;46.104;19.656;2024-03-07T08:37:45;410.10;1715.20
55719;DHT22;41623;46.104;19.656;2024-03-07T08:40:12;410.20;1689.60
55719;DHT22;41623;46.104;19.656;2024-03-07T08:42:45;410.20;1689.60
55719;DHT22;41623;46.104;19.656;2024-03-07T08:45:18;410.10;1715.20
55719;DHT22;41623;46.104;19.656;2024-03-07T08:47:46;410.10;1715.20
55719;DHT22;41623;46.104;19.656;2024-03-07T08:50:12;410.10;1740.80
55719;DHT22;41623;46.104;19.656;2024-03-07T08:52:40;410.10;1740.80
55719;DHT22;41623;46.104;19.656;2024-03-07T08:55:09;410.10;1740.80
55719;DHT22;41623;46.104;19.656;2024-03-07T08:57:36;410.10;1715.20
55719;DHT22;41623;46.104;19.656;2024-03-07T09:00:03;410.10;1715.20
55719;DHT22;41623;46.104;19.656;2024-03-07T09:02:34;410.10;1740.80
55719;DHT22;41623;46.104;19.656;2024-03-07T09:05:01;410.10;1715.20
55719;DHT22;41623;46.104;19.656;2024-03-07T09:07:27;410.10;1715.20
55719;DHT22;41623;46.104;19.656;2024-03-07T09:09:55;410.10;1740.80
55719;DHT22;41623;46.104;19.656;2024-03-07T09:12:21;410.00;1740.80
55719;DHT22;41623;46.104;19.656;2024-03-07T09:14:47;410.10;1740.80
55719;DHT22;41623;46.104;19.656;2024-03-07T09:17:12;410.10;1740.80
55719;DHT22;41623;46.104;19.656;2024-03-07T09:19:38;410.10;1740.80
55719;DHT22;41623;46.104;19.656;2024-03-07T09:22:04;410.10;1740.80
55719;DHT22;41623;46.104;19.656;2024-03-07T09:24:33;410.00;1740.80
55719;DHT22;41623;46.104;19.656;2024-03-07T09:27:00;410.10;1740.80
55719;DHT22;41623;46.104;19.656;2024-03-07T09:29:26;410.10;1740.80
55719;DHT22;41623;46.104;19.656;2024-03-07T09:31:53;410.10;1740.80
55719;DHT22;41623;46.104;19.656;2024-03-07T09:34:20;410.10;1740.80
55719;DHT22;41623;46.104;19.656;2024-03-07T09:36:49;410.00;1740.80
55719;DHT22;41623;46.104;19.656;2024-03-07T09:39:15;410.10;1740.80
55719;DHT22;41623;46.104;19.656;2024-03-07T09:41:42;410.00;1740.80
55719;DHT22;41623;46.104;19.656;2024-03-07T09:44:15;410.20;1740.80
55719;DHT22;41623;46.104;19.656;2024-03-07T09:46:48;410.00;1740.80
55719;DHT22;41623;46.104;19.656;2024-03-07T09:49:14;410.00;1740.80
55719;DHT22;41623;46.104;19.656;2024-03-07T09:51:40;410.10;1740.80
55719;DHT22;41623;46.104;19.656;2024-03-07T09:54:08;410.10;1740.80
55719;DHT22;41623;46.104;19.656;2024-03-07T09:56:36;410.10;1740.80
55719;DHT22;41623;46.104;19.656;2024-03-07T09:59:04;410.10;1740.80
55719;DHT22;41623;46.104;19.656;2024-03-07T10:01:33;410.10;1740.80
55719;DHT22;41623;46.104;19.656;2024-03-07T10:04:01;410.10;1740.80
55719;DHT22;41623;46.104;19.656;2024-03-07T10:06:36;410.10;1740.80
55719;DHT22;41623;46.104;19.656;2024-03-07T10:09:02;410.10;1740.80
55719;DHT22;41623;46.104;19.656;2024-03-07T10:11:29;410.10;1766.40
55719;DHT22;41623;46.104;19.656;2024-03-07T10:13:55;410.10;1740.80
55719;DHT22;41623;46.104;19.656;2024-03-07T10:16:21;410.10;1740.80
55719;DHT22;41623;46.104;19.656;2024-03-07T10:18:48;410.10;1715.20
55719;DHT22;41623;46.104;19.656;2024-03-07T10:21:21;410.00;1740.80
55719;DHT22;41623;46.104;19.656;2024-03-07T10:23:49;410.10;1766.40
55719;DHT22;41623;46.104;19.656;2024-03-07T10:26:17;410.10;1740.80
55719;DHT22;41623;46.104;19.656;2024-03-07T10:28:43;410.10;1740.80
55719;DHT22;41623;46.104;19.656;2024-03-07T10:31:09;410.00;1740.80
55719;DHT22;41623;46.104;19.656;2024-03-07T10:33:39;410.10;1740.80
55719;DHT22;41623;46.104;19.656;2024-03-07T10:36:05;410.00;1740.80
55719;DHT22;41623;46.104;19.656;2024-03-07T10:38:38;410.00;1740.80
55719;DHT22;41623;46.104;19.656;2024-03-07T10:41:06;410.00;1740.80
55719;DHT22;41623;46.104;19.656;2024-03-07T10:43:36;410.10;1740.80
55719;DHT22;41623;46.104;19.656;2024-03-07T10:46:05;410.00;1740.80
55719;DHT22;41623;46.104;19.656;2024-03-07T10:48:38;410.00;1766.40
55719;DHT22;41623;46.104;19.656;2024-03-07T10:51:32;410.00;1766.40
55719;DHT22;41623;46.104;19.656;2024-03-07T10:54:22;410.00;1740.80
55719;DHT22;41623;46.104;19.656;2024-03-07T10:59:31;410.00;1766.40
55719;DHT22;41623;46.104;19.656;2024-03-07T11:04:31;410.00;1740.80
55719;DHT22;41623;46.104;19.656;2024-03-07T11:06:57;410.00;1740.80
55719;DHT22;41623;46.104;19.656;2024-03-07T11:09:25;410.00;1740.80
55719;DHT22;41623;46.104;19.656;2024-03-07T11:11:56;410.00;1740.80
55719;DHT22;41623;46.104;19.656;2024-03-07T11:14:23;410.00;1740.80
55719;DHT22;41623;46.104;19.656;2024-03-07T11:16:49;410.00;1766.40
55719;DHT22;41623;46.104;19.656;2024-03-07T11:19:25;410.00;1766.40
55719;DHT22;41623;46.104;19.656;2024-03-07T11:21:57;410.00;1740.80
55719;DHT22;41623;46.104;19.656;2024-03-07T11:24:27;410.00;1766.40
55719;DHT22;41623;46.104;19.656;2024-03-07T11:27:03;410.00;1766.40
55719;DHT22;41623;46.104;19.656;2024-03-07T11:29:49;410.00;1766.40
55719;DHT22;41623;46.104;19.656;2024-03-07T11:32:23;410.00;1766.40
55719;DHT22;41623;46.104;19.656;2024-03-07T11:34:49;410.00;1766.40
55719;DHT22;41623;46.104;19.656;2024-03-07T11:37:42;410.00;1740.80
55719;DHT22;41623;46.104;19.656;2024-03-07T11:40:42;410.00;1740.80
55719;DHT22;41623;46.104;19.656;2024-03-07T11:43:01;410.00;1740.80
55719;DHT22;41623;46.104;19.656;2024-03-07T11:45:30;410.00;1740.80
55719;DHT22;41623;46.104;19.656;2024-03-07T11:48:04;410.00;1740.80
55719;DHT22;41623;46.104;19.656;2024-03-07T11:50:40;410.00;1766.40
55719;DHT22;41623;46.104;19.656;2024-03-07T11:53:07;410.00;1766.40
55719;DHT22;41623;46.104;19.656;2024-03-07T11:55:39;410.00;1766.40
55719;DHT22;41623;46.104;19.656;2024-03-07T11:58:18;410.00;1766.40
55719;DHT22;41623;46.104;19.656;2024-03-07T12:00:47;410.00;1740.80
55719;DHT22;41623;46.104;19.656;2024-03-07T12:03:17;409.90;1740.80
55719;DHT22;41623;46.104;19.656;2024-03-07T12:05:47;410.00;1766.40
55719;DHT22;41623;46.104;19.656;2024-03-07T12:08:13;410.00;1715.20
55719;DHT22;41623;46.104;19.656;2024-03-07T12:10:40;409.90;1740.80
55719;DHT22;41623;46.104;19.656;2024-03-07T12:13:09;409.90;1740.80
55719;DHT22;41623;46.104;19.656;2024-03-07T12:15:38;410.00;1740.80
55719;DHT22;41623;46.104;19.656;2024-03-07T12:18:04;409.90;1740.80
55719;DHT22;41623;46.104;19.656;2024-03-07T12:20:35;410.00;1740.80
55719;DHT22;41623;46.104;19.656;2024-03-07T12:23:01;409.90;1766.40
55719;DHT22;41623;46.104;19.656;2024-03-07T12:25:31;409.90;1740.80
55719;DHT22;41623;46.104;19.656;2024-03-07T12:28:02;409.90;1766.40
55719;DHT22;41623;46.104;19.656;2024-03-07T12:30:33;410.00;1766.40
55719;DHT22;41623;46.104;19.656;2024-03-07T12:33:01;410.00;1766.40
55719;DHT22;41623;46.104;19.656;2024-03-07T12:35:30;409.80;1766.40
55719;DHT22;41623;46.104;19.656;2024-03-07T12:37:58;409.90;1766.40
55719;DHT22;41623;46.104;19.656;2024-03-07T12:40:26;409.90;1766.40
55719;DHT22;41623;46.104;19.656;2024-03-07T12:42:54;409.90;1766.40
55719;DHT22;41623;46.104;19.656;2024-03-07T12:45:20;409.90;1740.80
55719;DHT22;41623;46.104;19.656;2024-03-07T12:47:47;409.90;1766.40
55719;DHT22;41623;46.104;19.656;2024-03-07T12:50:17;410.00;1766.40
55719;DHT22;41623;46.104;19.656;2024-03-07T12:52:44;409.90;1766.40
55719;DHT22;41623;46.104;19.656;2024-03-07T12:55:09;409.90;1766.40
55719;DHT22;41623;46.104;19.656;2024-03-07T12:57:35;409.90;1766.40
55719;DHT22;41623;46.104;19.656;2024-03-07T13:00:06;409.90;1766.40
55719;DHT22;41623;46.104;19.656;2024-03-07T13:02:42;410.00;1766.40
55719;DHT22;41623;46.104;19.656;2024-03-07T13:05:10;409.90;1766.40
55719;DHT22;41623;46.104;19.656;2024-03-07T13:07:47;409.90;1766.40
55719;DHT22;41623;46.104;19.656;2024-03-07T13:10:14;409.90;1766.40
55719;DHT22;41623;46.104;19.656;2024-03-07T13:12:47;409.90;1766.40
55719;DHT22;41623;46.104;19.656;2024-03-07T13:15:15;409.90;1766.40
55719;DHT22;41623;46.104;19.656;2024-03-07T13:17:41;410.00;1766.40
55719;DHT22;41623;46.104;19.656;2024-03-07T13:20:11;409.90;1766.40
55719;DHT22;41623;46.104;19.656;2024-03-07T13:22:41;409.90;1766.40
55719;DHT22;41623;46.104;19.656;2024-03-07T13:25:17;410.00;1766.40
55719;DHT22;41623;46.104;19.656;2024-03-07T13:30:24;409.90;1766.40
55719;DHT22;41623;46.104;19.656;2024-03-07T13:32:56;409.90;1766.40
55719;DHT22;41623;46.104;19.656;2024-03-07T13:35:23;409.90;1766.40
55719;DHT22;41623;46.104;19.656;2024-03-07T13:37:52;410.00;1740.80
55719;DHT22;41623;46.104;19.656;2024-03-07T13:40:19;410.00;1766.40
55719;DHT22;41623;46.104;19.656;2024-03-07T13:42:58;409.90;1766.40
55719;DHT22;41623;46.104;19.656;2024-03-07T13:45:27;410.00;1766.40
55719;DHT22;41623;46.104;19.656;2024-03-07T13:47:54;409.90;1766.40
55719;DHT22;41623;46.104;19.656;2024-03-07T13:50:23;410.00;1766.40
55719;DHT22;41623;46.104;19.656;2024-03-07T13:52:53;410.00;1766.40
55719;DHT22;41623;46.104;19.656;2024-03-07T14:07:32;409.90;1766.40
55719;DHT22;41623;46.104;19.656;2024-03-07T14:10:31;409.90;1766.40
55719;DHT22;41623;46.104;19.656;2024-03-07T14:30:52;409.80;1792.00
55719;DHT22;41623;46.104;19.656;2024-03-07T14:33:29;409.90;1792.00
55719;DHT22;41623;46.104;19.656;2024-03-07T14:36:40;409.90;1792.00
55719;DHT22;41623;46.104;19.656;2024-03-07T14:39:07;409.90;1792.00
55719;DHT22;41623;46.104;19.656;2024-03-07T14:41:58;409.90;1792.00
55719;DHT22;41623;46.104;19.656;2024-03-07T14:44:24;409.80;1766.40
55719;DHT22;41623;46.104;19.656;2024-03-07T14:46:59;409.90;1766.40
55719;DHT22;41623;46.104;19.656;2024-03-07T14:49:26;409.80;1766.40
55719;DHT22;41623;46.104;19.656;2024-03-07T14:51:53;409.90;1766.40
55719;DHT22;41623;46.104;19.656;2024-03-07T14:54:21;409.90;1766.40
55719;DHT22;41623;46.104;19.656;2024-03-07T14:56:47;409.90;1766.40
55719;DHT22;41623;46.104;19.656;2024-03-07T14:59:13;409.90;1766.40
55719;DHT22;41623;46.104;19.656;2024-03-07T15:01:38;409.90;1766.40
55719;DHT22;41623;46.104;19.656;2024-03-07T15:04:05;409.90;1766.40
55719;DHT22;41623;46.104;19.656;2024-03-07T15:06:35;409.90;1766.40
55719;DHT22;41623;46.104;19.656;2024-03-07T15:09:01;409.90;1766.40
55719;DHT22;41623;46.104;19.656;2024-03-07T15:11:34;409.90;1766.40
55719;DHT22;41623;46.104;19.656;2024-03-07T15:14:01;409.90;1766.40
55719;DHT22;41623;46.104;19.656;2024-03-07T15:16:27;409.90;1766.40
55719;DHT22;41623;46.104;19.656;2024-03-07T15:18:56;409.90;1766.40
55719;DHT22;41623;46.104;19.656;2024-03-07T15:21:22;409.90;1766.40